createdAt,value
2018-11-13T00:02:28.114Z,14.83
2018-11-13T00:04:56.157Z,17.20
2018-11-13T00:07:24.157Z,14.40
2018-11-13T00:10:09.867Z,14.93
2018-11-13T00:12:39.116Z,19.80
2018-11-13T00:15:07.239Z,12.53
2018-11-13T00:17:35.484Z,18.03
2018-11-13T00:20:03.904Z,13.47
2018-11-13T00:22:32.733Z,14.70
2018-11-13T00:25:00.666Z,14.63
2018-11-13T00:27:28.707Z,16.37
2018-11-13T00:29:56.698Z,17.47
2018-11-13T00:32:24.879Z,23.60
2018-11-13T00:34:53.052Z,18.63
2018-11-13T00:37:21.182Z,20.23
2018-11-13T00:39:49.215Z,16.40
2018-11-13T00:42:17.219Z,18.13
2018-11-13T00:44:45.326Z,15.20
2018-11-13T00:47:13.264Z,11.70
2018-11-13T00:49:41.205Z,12.83
2018-11-13T00:52:09.266Z,17.00
2018-11-13T00:54:37.306Z,14.60
2018-11-13T00:57:05.283Z,16.73
2018-11-13T00:59:33.320Z,14.00
2018-11-13T01:02:01.551Z,14.27
2018-11-13T01:04:29.545Z,19.10
2018-11-13T01:06:57.784Z,17.73
2018-11-13T01:09:25.822Z,16.43
2018-11-13T01:11:53.872Z,15.70
2018-11-13T01:14:21.820Z,15.37
2018-11-13T01:16:49.780Z,18.90
2018-11-13T01:19:17.696Z,14.70
2018-11-13T01:21:45.647Z,16.70
2018-11-13T01:24:13.559Z,17.13
2018-11-13T01:26:41.518Z,13.60
2018-11-13T01:29:09.484Z,17.47
2018-11-13T01:31:37.442Z,17.33
2018-11-13T01:34:05.491Z,16.90
2018-11-13T01:36:33.456Z,18.30
2018-11-13T01:39:01.446Z,19.90
2018-11-13T01:41:29.448Z,18.30
2018-11-13T01:43:57.449Z,17.60
2018-11-13T01:46:25.490Z,14.47
2018-11-13T01:48:53.688Z,15.13
2018-11-13T01:51:21.500Z,18.03
2018-11-13T01:53:49.417Z,19.17
2018-11-13T01:56:17.352Z,15.90
2018-11-13T01:58:45.331Z,16.60
2018-11-13T02:01:13.298Z,18.33
2018-11-13T02:03:41.271Z,15.60
2018-11-13T02:06:09.272Z,16.70
2018-11-13T02:08:37.281Z,18.40
2018-11-13T02:11:05.300Z,14.13
2018-11-13T02:13:33.211Z,17.57
2018-11-13T02:16:01.124Z,16.20
2018-11-13T02:18:29.063Z,17.63
2018-11-13T02:20:56.982Z,18.20
2018-11-13T02:23:24.942Z,17.30
2018-11-13T02:25:52.865Z,16.40
2018-11-13T02:28:20.818Z,17.23
2018-11-13T02:30:48.711Z,15.93
2018-11-13T02:33:16.651Z,13.40
2018-11-13T02:35:44.760Z,15.23
2018-11-13T02:38:12.618Z,14.13
2018-11-13T02:40:40.646Z,14.53
2018-11-13T02:43:08.639Z,17.60
2018-11-13T02:45:36.548Z,17.03
2018-11-13T02:48:04.726Z,17.40
2018-11-13T02:50:32.670Z,18.10
2018-11-13T02:53:00.625Z,18.90
2018-11-13T02:55:28.586Z,15.65
2018-11-13T02:57:56.506Z,17.40
2018-11-13T03:00:24.452Z,16.70
2018-11-13T03:02:52.407Z,16.80
2018-11-13T03:05:21.166Z,17.00
2018-11-13T03:07:49.195Z,18.17
2018-11-13T03:10:18.250Z,15.90
2018-11-13T03:12:46.171Z,16.57
2018-11-13T03:15:15.203Z,16.05
2018-11-13T03:17:43.209Z,18.10
2018-11-13T03:20:12.413Z,15.87
2018-11-13T03:22:40.876Z,30.70
2018-11-13T03:25:09.980Z,13.93
2018-11-13T03:27:38.472Z,15.23
2018-11-13T03:30:16.875Z,14.37
2018-11-13T03:32:45.159Z,14.43
2018-11-13T03:35:13.120Z,17.63
2018-11-13T03:37:41.175Z,18.43
2018-11-13T03:40:09.891Z,16.80
2018-11-13T03:42:38.052Z,12.70
2018-11-13T03:45:06.572Z,14.13
2018-11-13T03:47:34.568Z,14.85
2018-11-13T03:50:02.637Z,15.20
2018-11-13T03:52:30.596Z,15.13
2018-11-13T03:54:58.581Z,16.13
2018-11-13T03:57:26.532Z,12.63
2018-11-13T03:59:54.507Z,17.70
2018-11-13T04:02:22.470Z,15.13
2018-11-13T04:04:50.426Z,15.53
2018-11-13T04:07:18.346Z,18.20
2018-11-13T04:09:46.359Z,18.20
2018-11-13T04:12:14.328Z,15.87
2018-11-13T04:14:42.317Z,15.90
2018-11-13T04:17:10.276Z,21.70
2018-11-13T04:19:38.209Z,24.13
2018-11-13T04:22:06.119Z,22.53
2018-11-13T04:24:34.230Z,21.10
2018-11-13T04:27:02.409Z,22.27
2018-11-13T04:29:30.763Z,18.20
2018-11-13T04:31:58.719Z,16.10
2018-11-13T04:34:26.692Z,18.13
2018-11-13T04:36:54.615Z,27.00
2018-11-13T04:39:22.598Z,19.73
2018-11-13T04:41:50.595Z,19.43
2018-11-13T04:44:18.575Z,21.07
2018-11-13T04:46:46.567Z,19.00
2018-11-13T04:49:14.491Z,21.37
2018-11-13T04:51:42.584Z,21.73
2018-11-13T04:54:10.427Z,25.67
2018-11-13T04:56:38.385Z,15.67
2018-11-13T04:59:06.400Z,18.60
2018-11-13T05:01:34.389Z,18.70
2018-11-13T05:04:02.393Z,14.97
2018-11-13T05:06:30.319Z,21.20
2018-11-13T05:08:58.263Z,18.73
2018-11-13T05:11:26.218Z,20.17
2018-11-13T05:13:54.176Z,15.63
2018-11-13T05:16:22.099Z,17.60
2018-11-13T05:18:50.039Z,17.47
2018-11-13T05:21:17.947Z,17.50
2018-11-13T05:23:45.881Z,18.50
2018-11-13T05:26:13.844Z,19.73
2018-11-13T05:28:41.773Z,14.83
2018-11-13T05:31:09.698Z,19.70
2018-11-13T05:33:37.652Z,16.97
2018-11-13T05:36:05.708Z,19.20
2018-11-13T05:38:33.657Z,15.93
2018-11-13T05:41:01.673Z,20.95
2018-11-13T05:43:29.695Z,15.90
2018-11-13T05:45:57.772Z,18.55
2018-11-13T05:48:25.717Z,22.10
2018-11-13T05:50:53.698Z,15.47
2018-11-13T05:53:21.660Z,18.65
2018-11-13T05:55:49.629Z,14.35
2018-11-13T05:58:17.545Z,15.20
2018-11-13T06:00:45.520Z,20.12
2018-11-13T06:03:13.476Z,21.52
2018-11-13T06:05:41.452Z,16.43
2018-11-13T06:08:10.268Z,19.70
2018-11-13T06:10:38.249Z,19.20
2018-11-13T06:13:06.236Z,18.70
2018-11-13T06:15:34.143Z,23.73
2018-11-13T06:18:02.099Z,19.10
2018-11-13T06:20:30.050Z,19.17
2018-11-13T06:22:58.063Z,19.20
2018-11-13T06:25:26.005Z,18.73
2018-11-13T06:27:53.923Z,17.67
2018-11-13T06:30:24.843Z,19.10
2018-11-13T06:32:53.049Z,18.20
2018-11-13T06:35:21.089Z,14.60
2018-11-13T06:37:49.079Z,16.20
2018-11-13T06:40:17.058Z,14.40
2018-11-13T06:42:45.055Z,8.80
2018-11-13T06:45:15.671Z,11.03
2018-11-13T06:47:44.409Z,7.93
2018-11-13T06:50:12.482Z,8.03
2018-11-13T06:52:40.488Z,10.40
2018-11-13T06:55:12.900Z,8.80
2018-11-13T06:57:40.844Z,11.73
2018-11-13T07:00:09.164Z,8.60
2018-11-13T07:02:37.710Z,9.50
2018-11-13T07:05:07.679Z,12.20
2018-11-13T07:07:35.738Z,11.97
2018-11-13T07:10:03.989Z,10.50
2018-11-13T07:12:31.938Z,12.97
2018-11-13T07:14:59.910Z,8.30
2018-11-13T07:17:27.928Z,8.20
2018-11-13T07:19:55.849Z,10.43
2018-11-13T07:22:23.818Z,9.00
2018-11-13T07:24:51.770Z,10.20
2018-11-13T07:27:19.760Z,9.10
2018-11-13T07:29:47.708Z,13.23
2018-11-13T07:32:15.675Z,10.57
2018-11-13T07:34:43.674Z,10.30
2018-11-13T07:37:11.990Z,9.87
2018-11-13T07:39:39.952Z,11.50
2018-11-13T07:42:07.910Z,11.00
2018-11-13T07:44:35.926Z,14.67
2018-11-13T07:47:04.111Z,11.33
2018-11-13T07:49:32.066Z,12.67
2018-11-13T07:52:00.368Z,12.63
2018-11-13T07:54:28.390Z,15.43
2018-11-13T07:56:56.344Z,13.80
2018-11-13T07:59:24.274Z,16.57
2018-11-13T08:01:52.202Z,13.90
2018-11-13T08:04:20.217Z,20.20
2018-11-13T08:06:48.281Z,11.53
2018-11-13T08:09:16.225Z,10.60
2018-11-13T08:11:44.250Z,12.00
2018-11-13T08:14:12.197Z,13.40
2018-11-13T08:16:40.232Z,16.73
2018-11-13T08:19:08.179Z,16.60
2018-11-13T08:21:36.108Z,14.20
2018-11-13T08:24:04.107Z,20.23
2018-11-13T08:26:32.084Z,17.30
2018-11-13T08:29:00.172Z,13.93
2018-11-13T08:31:28.107Z,16.87
2018-11-13T08:33:56.023Z,16.83
2018-11-13T08:36:23.978Z,17.33
2018-11-13T08:38:51.925Z,16.60
2018-11-13T08:41:19.925Z,14.83
2018-11-13T08:43:47.928Z,15.53
2018-11-13T08:46:15.839Z,12.73
2018-11-13T08:48:43.905Z,13.97
2018-11-13T08:51:11.928Z,13.70
2018-11-13T08:53:39.948Z,12.53
2018-11-13T08:56:07.919Z,12.10
2018-11-13T08:58:35.969Z,10.67
2018-11-13T09:01:03.848Z,11.37
2018-11-13T09:03:31.816Z,10.27
2018-11-13T09:05:59.786Z,10.33
2018-11-13T09:08:27.736Z,9.50
2018-11-13T09:10:55.890Z,10.50
2018-11-13T09:13:23.892Z,10.23
2018-11-13T09:15:51.846Z,8.70
2018-11-13T09:18:19.809Z,8.93
2018-11-13T09:20:47.820Z,9.53
2018-11-13T09:23:15.784Z,9.73
2018-11-13T09:25:43.777Z,12.90
2018-11-13T09:28:11.748Z,10.23
2018-11-13T09:30:39.804Z,12.03
2018-11-13T09:33:07.741Z,11.20
2018-11-13T09:35:35.597Z,9.63
2018-11-13T09:38:03.558Z,9.80
2018-11-13T09:40:31.524Z,8.83
2018-11-13T09:42:59.515Z,11.83
2018-11-13T09:45:27.476Z,9.70
2018-11-13T09:47:55.531Z,10.97
2018-11-13T09:50:23.469Z,9.83
2018-11-13T09:52:52.162Z,10.03
2018-11-13T09:55:21.383Z,12.07
2018-11-13T09:57:49.445Z,15.23
2018-11-13T10:00:19.168Z,12.57
2018-11-13T10:02:48.769Z,11.07
2018-11-13T10:05:17.488Z,13.50
2018-11-13T10:07:45.855Z,12.80
2018-11-13T10:10:13.786Z,12.80
2018-11-13T10:12:41.724Z,12.93
2018-11-13T10:15:11.098Z,13.60
2018-11-13T10:17:39.174Z,13.33
2018-11-13T10:20:07.735Z,15.57
2018-11-13T10:22:35.708Z,15.43
2018-11-13T10:25:03.650Z,13.87
2018-11-13T10:27:31.609Z,17.77
2018-11-13T10:29:59.621Z,13.00
2018-11-13T10:32:27.559Z,13.67
2018-11-13T10:34:55.492Z,13.47
2018-11-13T10:37:23.424Z,15.70
2018-11-13T10:39:51.375Z,14.40
2018-11-13T10:42:19.320Z,16.13
2018-11-13T10:44:47.309Z,18.67
2018-11-13T10:47:15.289Z,15.80
2018-11-13T10:49:43.256Z,15.17
2018-11-13T10:52:11.230Z,13.87
2018-11-13T10:54:39.407Z,16.03
2018-11-13T10:57:07.315Z,15.10
2018-11-13T10:59:42.128Z,14.00
2018-11-13T11:02:15.645Z,17.30
2018-11-13T11:04:47.276Z,12.63
2018-11-13T11:07:15.283Z,12.90
2018-11-13T11:09:43.301Z,15.40
2018-11-13T11:12:11.380Z,14.87
2018-11-13T11:14:39.350Z,12.27
2018-11-13T11:17:07.567Z,15.80
2018-11-13T11:19:35.596Z,13.80
2018-11-13T11:22:03.531Z,13.67
2018-11-13T11:24:31.519Z,14.53
2018-11-13T11:26:59.473Z,13.97
2018-11-13T11:29:27.485Z,13.90
2018-11-13T11:31:55.431Z,14.30
2018-11-13T11:34:23.401Z,13.73
2018-11-13T11:36:51.367Z,12.50
2018-11-13T11:39:19.380Z,14.30
2018-11-13T11:41:47.282Z,14.70
2018-11-13T11:44:15.240Z,12.70
2018-11-13T11:46:43.218Z,12.43
2018-11-13T11:49:11.184Z,12.30
2018-11-13T11:51:39.135Z,12.90
2018-11-13T11:54:07.128Z,12.23
2018-11-13T11:56:35.105Z,13.87
2018-11-13T11:59:03.033Z,12.60
2018-11-13T12:01:30.975Z,13.50
2018-11-13T12:03:58.935Z,13.77
2018-11-13T12:06:26.937Z,11.93
2018-11-13T12:08:55.699Z,13.00
2018-11-13T12:11:23.648Z,11.30
2018-11-13T12:13:51.592Z,12.23
2018-11-13T12:16:19.510Z,12.17
2018-11-13T12:18:47.518Z,13.23
2018-11-13T12:21:15.488Z,11.90
2018-11-13T12:23:43.443Z,14.40
2018-11-13T12:26:11.456Z,11.77
2018-11-13T12:28:39.438Z,12.50
2018-11-13T12:31:07.374Z,12.90
2018-11-13T12:33:35.360Z,15.10
2018-11-13T12:36:03.368Z,11.03
2018-11-13T12:38:31.341Z,12.67
2018-11-13T12:40:59.390Z,14.83
2018-11-13T12:43:27.303Z,11.53
2018-11-13T12:45:55.376Z,12.90
2018-11-13T12:48:23.432Z,14.40
2018-11-13T12:50:57.595Z,13.97
2018-11-13T12:53:25.623Z,12.73
2018-11-13T12:55:53.687Z,13.10
2018-11-13T12:58:21.600Z,12.30
2018-11-13T13:00:49.519Z,11.33
2018-11-13T13:03:17.525Z,13.60
2018-11-13T13:05:45.495Z,12.83
2018-11-13T13:08:13.428Z,10.70
2018-11-13T13:10:41.427Z,14.30
2018-11-13T13:13:09.403Z,11.23
2018-11-13T13:15:37.349Z,15.00
2018-11-13T13:18:05.321Z,15.57
2018-11-13T13:20:33.259Z,13.93
2018-11-13T13:23:01.230Z,12.77
2018-11-13T13:25:29.265Z,12.33
2018-11-13T13:27:57.240Z,10.67
2018-11-13T13:30:25.830Z,13.60
2018-11-13T13:32:53.840Z,14.40
2018-11-13T13:35:57.774Z,11.00
2018-11-13T13:38:25.827Z,12.03
2018-11-13T13:40:54.927Z,12.27
2018-11-13T13:43:23.654Z,12.47
2018-11-13T13:45:51.740Z,12.20
2018-11-13T13:48:19.986Z,11.33
2018-11-13T13:50:47.966Z,11.97
2018-11-13T13:53:16.958Z,14.53
2018-11-13T13:55:45.329Z,13.43
2018-11-13T13:58:13.923Z,11.50
2018-11-13T14:00:41.984Z,12.30
2018-11-13T14:03:10.552Z,12.30
2018-11-13T14:05:38.786Z,12.30
2018-11-13T14:08:07.265Z,12.77
2018-11-13T14:10:35.253Z,12.57
2018-11-13T14:13:03.271Z,13.90
2018-11-13T14:15:31.291Z,12.20
2018-11-13T14:17:59.456Z,15.73
2018-11-13T14:20:27.417Z,20.33
2018-11-13T14:22:55.416Z,12.70
2018-11-13T14:25:23.351Z,11.27
2018-11-13T14:27:51.377Z,13.47
2018-11-13T14:30:22.184Z,13.27
2018-11-13T14:32:50.560Z,14.30
2018-11-13T14:35:18.779Z,16.43
2018-11-13T14:37:47.115Z,12.83
2018-11-13T14:40:25.557Z,12.73
2018-11-13T14:42:53.534Z,11.87
2018-11-13T14:45:23.287Z,11.67
2018-11-13T14:47:51.819Z,14.23
2018-11-13T14:50:21.319Z,11.00
2018-11-13T14:52:49.808Z,11.00
2018-11-13T14:55:19.855Z,13.03
2018-11-13T14:57:48.201Z,13.50
2018-11-13T15:00:18.042Z,13.43
2018-11-13T15:02:46.339Z,12.80
2018-11-13T15:05:15.490Z,13.47
2018-11-13T15:07:44.684Z,14.40
2018-11-13T15:10:25.212Z,16.13
2018-11-13T15:12:53.212Z,14.70
2018-11-13T15:15:21.253Z,15.60
2018-11-13T15:17:49.260Z,14.80
2018-11-13T15:20:17.205Z,14.23
2018-11-13T15:22:45.171Z,16.10
2018-11-13T15:25:15.001Z,15.03
2018-11-13T15:27:43.760Z,17.03
2018-11-13T15:30:13.715Z,16.80
2018-11-13T15:32:41.904Z,19.33
2018-11-13T15:35:11.283Z,15.97
2018-11-13T15:37:39.651Z,14.60
2018-11-13T15:40:08.970Z,17.80
2018-11-13T15:42:38.582Z,15.10
2018-11-13T15:45:06.093Z,17.50
2018-11-13T15:47:34.388Z,17.80
2018-11-13T15:50:02.425Z,17.70
2018-11-13T15:52:30.402Z,16.77
2018-11-13T15:54:58.551Z,20.17
2018-11-13T15:57:26.522Z,19.23
2018-11-13T15:59:54.534Z,16.10
2018-11-13T16:02:22.504Z,20.90
2018-11-13T16:04:50.479Z,18.87
2018-11-13T16:07:18.458Z,21.50
2018-11-13T16:09:46.496Z,19.03
2018-11-13T16:12:14.747Z,19.27
2018-11-13T16:14:42.746Z,16.00
2018-11-13T16:17:10.754Z,19.90
2018-11-13T16:19:38.738Z,17.63
2018-11-13T16:22:06.816Z,18.47
2018-11-13T16:24:34.839Z,19.67
2018-11-13T16:27:02.828Z,17.07
2018-11-13T16:29:30.775Z,18.93
2018-11-13T16:31:58.805Z,20.57
2018-11-13T16:34:26.903Z,23.27
2018-11-13T16:36:55.133Z,18.87
2018-11-13T16:39:23.117Z,29.77
2018-11-13T16:41:51.060Z,24.60
2018-11-13T16:44:19.049Z,21.50
2018-11-13T16:46:47.052Z,23.30
2018-11-13T16:49:21.981Z,19.50
2018-11-13T16:51:49.950Z,23.43
2018-11-13T16:54:17.912Z,20.97
2018-11-13T16:56:48.463Z,22.10
2018-11-13T16:59:16.507Z,20.30
2018-11-13T17:01:44.526Z,25.33
2018-11-13T17:04:12.514Z,21.67
2018-11-13T17:06:40.675Z,20.80
2018-11-13T17:09:09.394Z,21.73
2018-11-13T17:11:37.451Z,23.53
2018-11-13T17:14:05.412Z,23.87
2018-11-13T17:16:33.405Z,21.43
2018-11-13T17:19:01.390Z,23.57
2018-11-13T17:21:29.348Z,21.77
2018-11-13T17:23:57.380Z,25.10
2018-11-13T17:26:25.349Z,25.87
2018-11-13T17:28:53.295Z,19.70
2018-11-13T17:31:21.268Z,20.40
2018-11-13T17:33:49.247Z,27.73
2018-11-13T17:36:17.195Z,25.43
2018-11-13T17:38:45.177Z,25.83
2018-11-13T17:41:13.135Z,23.93
2018-11-13T17:43:41.143Z,24.47
2018-11-13T17:46:09.099Z,29.80
2018-11-13T17:48:37.073Z,30.20
2018-11-13T17:51:05.240Z,30.40
2018-11-13T17:53:33.443Z,26.90
2018-11-13T17:56:01.311Z,30.77
2018-11-13T17:58:29.253Z,31.17
2018-11-13T18:00:57.364Z,31.10
2018-11-13T18:03:25.343Z,30.80
2018-11-13T18:05:53.311Z,31.93
2018-11-13T18:08:21.267Z,30.73
2018-11-13T18:10:49.253Z,37.17
2018-11-13T18:13:17.280Z,28.70
2018-11-13T18:15:45.327Z,33.60
2018-11-13T18:18:13.299Z,25.53
2018-11-13T18:20:41.594Z,25.83
2018-11-13T18:23:09.836Z,30.53
2018-11-13T18:25:37.886Z,29.53
2018-11-13T18:28:06.027Z,26.10
2018-11-13T18:30:35.545Z,28.10
2018-11-13T18:33:04.709Z,29.33
2018-11-13T18:35:35.307Z,24.83
2018-11-13T18:38:05.113Z,28.53
2018-11-13T18:40:33.168Z,28.93
2018-11-13T18:43:01.513Z,28.73
2018-11-13T18:45:32.438Z,29.00
2018-11-13T18:48:00.475Z,26.30
2018-11-13T18:50:30.576Z,27.10
2018-11-13T18:52:58.835Z,28.07
2018-11-13T18:55:26.882Z,26.63
2018-11-13T18:57:54.894Z,27.17
2018-11-13T19:00:27.867Z,27.83
2018-11-13T19:02:56.440Z,27.90
2018-11-13T19:05:25.068Z,28.63
2018-11-13T19:07:53.147Z,34.70
2018-11-13T19:10:28.335Z,38.07
2018-11-13T19:12:57.586Z,35.60
2018-11-13T19:15:25.560Z,38.20
2018-11-13T19:17:54.042Z,31.40
2018-11-13T19:20:23.359Z,33.47
2018-11-13T19:22:51.355Z,33.33
2018-11-13T19:25:21.858Z,32.17
2018-11-13T19:27:50.354Z,36.27
2018-11-13T19:30:19.382Z,36.93
2018-11-13T19:32:47.231Z,34.33
2018-11-13T19:35:15.605Z,34.23
2018-11-13T19:37:43.637Z,37.40
2018-11-13T19:40:14.515Z,39.77
2018-11-13T19:42:42.979Z,36.00
2018-11-13T19:45:11.095Z,40.27
2018-11-13T19:47:39.330Z,39.87
2018-11-13T19:50:08.536Z,38.87
2018-11-13T19:52:36.508Z,36.30
2018-11-13T19:55:04.887Z,42.10
2018-11-13T19:57:32.942Z,39.57
2018-11-13T20:00:01.028Z,43.90
2018-11-13T20:02:29.228Z,43.90
2018-11-13T20:04:57.265Z,42.10
2018-11-13T20:07:25.306Z,42.07
2018-11-13T20:09:53.365Z,43.37
2018-11-13T20:12:21.365Z,41.77
2018-11-13T20:14:49.374Z,46.87
2018-11-13T20:17:17.395Z,48.33
2018-11-13T20:19:49.964Z,42.20
2018-11-13T20:22:27.961Z,48.70
2018-11-13T20:24:55.968Z,48.70
2018-11-13T20:27:23.959Z,54.80
2018-11-13T20:29:51.968Z,88.43
2018-11-13T20:32:19.973Z,129.20
2018-11-13T20:34:47.969Z,185.57
2018-11-13T20:37:15.968Z,90.17
2018-11-13T20:39:43.999Z,155.17
2018-11-13T20:42:11.983Z,181.73
2018-11-13T20:44:40.088Z,175.23
2018-11-13T20:47:08.076Z,93.87
2018-11-13T20:49:36.108Z,85.07
2018-11-13T20:52:04.107Z,239.67
2018-11-13T20:54:32.125Z,140.27
2018-11-13T20:57:00.168Z,72.23
2018-11-13T20:59:28.163Z,149.27
2018-11-13T21:01:56.247Z,109.10
2018-11-13T21:04:24.235Z,74.77
2018-11-13T21:06:52.295Z,76.20
2018-11-13T21:09:20.254Z,58.30
2018-11-13T21:11:48.287Z,109.07
2018-11-13T21:14:16.342Z,167.33
2018-11-13T21:16:44.534Z,80.63
2018-11-13T21:19:12.502Z,156.20
2018-11-13T21:21:40.463Z,152.80
2018-11-13T21:24:08.977Z,168.47
2018-11-13T21:26:48.981Z,136.97
2018-11-13T21:29:16.979Z,94.17
2018-11-13T21:31:45.095Z,73.53
2018-11-13T21:34:13.129Z,94.97
2018-11-13T21:36:41.228Z,109.10
2018-11-13T21:39:10.112Z,143.60
2018-11-13T21:41:38.355Z,244.13
2018-11-13T21:44:06.630Z,249.80
2018-11-13T21:46:34.637Z,136.43
2018-11-13T21:49:04.059Z,141.93
2018-11-13T21:51:36.964Z,127.77
2018-11-13T21:54:08.915Z,228.47
2018-11-13T21:56:36.923Z,148.37
2018-11-13T21:59:08.307Z,106.77
2018-11-13T22:01:36.392Z,248.23
2018-11-13T22:04:04.578Z,121.60
2018-11-13T22:06:32.610Z,203.83
2018-11-13T22:09:00.634Z,223.50
2018-11-13T22:11:28.625Z,238.47
2018-11-13T22:13:56.638Z,124.30
2018-11-13T22:16:24.690Z,103.37
2018-11-13T22:18:52.856Z,140.53
2018-11-13T22:21:30.881Z,259.57
2018-11-13T22:23:59.124Z,217.90
2018-11-13T22:26:27.192Z,80.47
2018-11-13T22:28:55.807Z,117.30
2018-11-13T22:31:23.506Z,241.73
2018-11-13T22:33:51.541Z,80.83
2018-11-13T22:36:19.576Z,112.77
2018-11-13T22:38:47.719Z,129.60
2018-11-13T22:41:15.699Z,161.93
2018-11-13T22:43:43.685Z,74.57
2018-11-13T22:46:13.023Z,134.47
2018-11-13T22:48:48.099Z,69.23
2018-11-13T22:51:16.174Z,92.10
2018-11-13T22:53:44.213Z,76.23
2018-11-13T22:56:12.303Z,118.83
2018-11-13T22:58:40.502Z,58.17
2018-11-13T23:01:08.483Z,64.20
2018-11-13T23:03:36.722Z,78.23
2018-11-13T23:06:04.747Z,129.73
2018-11-13T23:08:32.815Z,73.27
2018-11-13T23:11:06.451Z,111.77
2018-11-13T23:13:34.405Z,74.70
2018-11-13T23:16:03.059Z,76.97
2018-11-13T23:18:31.092Z,105.63
2018-11-13T23:20:59.267Z,82.43
2018-11-13T23:23:27.231Z,60.67
2018-11-13T23:25:55.174Z,70.57
2018-11-13T23:28:23.427Z,141.20
2018-11-13T23:30:52.070Z,69.27
2018-11-13T23:33:19.677Z,113.30
2018-11-13T23:35:47.641Z,227.63
2018-11-13T23:38:15.648Z,112.67
2018-11-13T23:40:43.779Z,95.03
2018-11-13T23:43:11.800Z,115.60
2018-11-13T23:45:39.751Z,67.20
2018-11-13T23:48:07.730Z,94.87
2018-11-13T23:50:35.691Z,62.80
2018-11-13T23:53:08.209Z,333.17
2018-11-13T23:55:36.182Z,60.57
2018-11-13T23:58:08.643Z,241.80
